createdAt,value
2022-12-13T00:30:05.664Z,1001.9
2022-12-13T00:30:46.270Z,1001.94
2022-12-13T00:31:56.493Z,1001.91
2022-12-13T00:32:07.138Z,1001.93
2022-12-13T00:32:47.593Z,1001.92
2022-12-13T00:33:28.056Z,1001.92
2022-12-13T00:34:49.006Z,1001.91
2022-12-13T00:35:29.486Z,1001.94
2022-12-13T00:36:09.953Z,1001.89
2022-12-13T00:36:50.472Z,1001.88
2022-12-13T00:37:30.932Z,1001.93
2022-12-13T00:38:11.459Z,1001.89
2022-12-13T00:38:51.971Z,1001.93
2022-12-13T00:39:32.488Z,1001.88
2022-12-13T00:40:12.907Z,1001.92
2022-12-13T00:40:53.389Z,1001.9
2022-12-13T00:41:33.875Z,1001.89
2022-12-13T00:42:14.367Z,1001.92
2022-12-13T00:42:54.816Z,1001.98
2022-12-13T00:43:35.319Z,1001.91
2022-12-13T00:44:56.372Z,1001.98
2022-12-13T00:45:36.910Z,1001.98
2022-12-13T00:46:17.450Z,1001.97
2022-12-13T00:46:57.884Z,1001.99
2022-12-13T00:47:38.280Z,1001.94
2022-12-13T00:48:18.803Z,1001.95
2022-12-13T00:48:59.271Z,1001.98
2022-12-13T00:49:39.800Z,1001.98
2022-12-13T00:50:20.278Z,1002
2022-12-13T00:51:00.731Z,1001.99
2022-12-13T00:51:41.241Z,1002
2022-12-13T00:52:21.765Z,1001.98
2022-12-13T00:53:02.192Z,1001.99
2022-12-13T00:53:42.745Z,1001.93
2022-12-13T00:54:23.272Z,1001.99
2022-12-13T00:55:03.717Z,1001.97
2022-12-13T00:55:44.237Z,1002
2022-12-13T00:56:24.751Z,1002.02
2022-12-13T00:57:05.211Z,1001.97
2022-12-13T00:57:45.689Z,1001.97
2022-12-13T00:58:26.174Z,1001.99
2022-12-13T00:59:06.678Z,1001.99
2022-12-13T00:59:47.134Z,1002.01
2022-12-13T01:00:27.619Z,1001.99
2022-12-13T01:01:08.228Z,1002
2022-12-13T01:02:29.130Z,1002.01
2022-12-13T01:03:09.620Z,1002
2022-12-13T01:03:50.067Z,1001.98
2022-12-13T01:04:30.564Z,1001.96
2022-12-13T01:05:11.183Z,1001.94
2022-12-13T01:06:14.055Z,1001.95
2022-12-13T01:06:31.973Z,1001.94
2022-12-13T01:07:12.445Z,1001.94
2022-12-13T01:07:52.980Z,1001.94
2022-12-13T01:08:33.430Z,1001.93
2022-12-13T01:09:54.871Z,1001.85
2022-12-13T01:10:35.417Z,1001.9
2022-12-13T01:11:15.886Z,1001.9
2022-12-13T01:11:56.376Z,1001.84
2022-12-13T01:12:36.877Z,1001.86
2022-12-13T01:13:17.333Z,1001.83
2022-12-13T01:13:57.819Z,1001.81
2022-12-13T01:14:38.332Z,1001.79
2022-12-13T01:15:18.769Z,1001.78
2022-12-13T01:15:59.333Z,1001.78
2022-12-13T01:16:39.868Z,1001.78
2022-12-13T01:17:20.267Z,1001.78
2022-12-13T01:18:00.757Z,1001.78
2022-12-13T01:18:41.240Z,1001.82
2022-12-13T01:19:21.718Z,1001.79
2022-12-13T01:20:02.215Z,1001.76
2022-12-13T01:20:42.663Z,1001.76
2022-12-13T01:21:23.131Z,1001.78
2022-12-13T01:22:03.628Z,1001.76
2022-12-13T01:22:44.171Z,1001.75
2022-12-13T01:23:24.603Z,1001.76
2022-12-13T01:24:05.123Z,1001.77
2022-12-13T01:24:45.556Z,1001.78
2022-12-13T01:25:26.049Z,1001.77
2022-12-13T01:26:06.507Z,1001.79
2022-12-13T01:27:27.477Z,1001.83
2022-12-13T01:28:07.980Z,1001.81
2022-12-13T01:28:49.265Z,1001.81
2022-12-13T01:29:29.754Z,1001.83
2022-12-13T01:30:10.248Z,1001.81
2022-12-13T01:30:50.734Z,1001.85
2022-12-13T01:31:31.248Z,1001.85
2022-12-13T01:32:11.741Z,1001.83
2022-12-13T01:32:52.209Z,1001.87
2022-12-13T01:33:32.737Z,1001.85
2022-12-13T01:34:13.201Z,1001.84
2022-12-13T01:34:53.698Z,1001.85
2022-12-13T01:35:34.154Z,1001.85
2022-12-13T01:36:14.637Z,1001.85
2022-12-13T01:37:37.432Z,1001.85
2022-12-13T01:38:16.413Z,1001.87
2022-12-13T01:38:58.192Z,1001.85
2022-12-13T01:39:38.376Z,1001.83
2022-12-13T01:40:17.533Z,1001.83
2022-12-13T01:40:58.739Z,1001.86
2022-12-13T01:41:38.519Z,1001.85
2022-12-13T01:42:19.016Z,1001.85
2022-12-13T01:42:59.457Z,1001.8
2022-12-13T01:43:39.936Z,1001.81
2022-12-13T01:44:20.450Z,1001.82
2022-12-13T01:45:00.982Z,1001.82
2022-12-13T01:45:41.400Z,1001.81
2022-12-13T01:46:21.964Z,1001.8
2022-12-13T01:47:02.401Z,1001.82
2022-12-13T01:47:42.887Z,1001.83
2022-12-13T01:48:23.403Z,1001.86
2022-12-13T01:49:03.930Z,1001.86
2022-12-13T01:49:44.410Z,1001.87
2022-12-13T01:50:24.843Z,1001.87
2022-12-13T01:51:05.319Z,1001.87
2022-12-13T01:51:45.785Z,1001.84
2022-12-13T01:52:26.272Z,1001.85
2022-12-13T01:53:06.769Z,1001.9
2022-12-13T01:53:47.270Z,1001.89
2022-12-13T01:54:33.376Z,1001.89
2022-12-13T01:55:48.715Z,1001.84
2022-12-13T01:56:29.196Z,1001.84
2022-12-13T01:57:09.670Z,1001.85
2022-12-13T01:57:50.168Z,1001.87
2022-12-13T01:58:30.683Z,1001.83
2022-12-13T01:59:11.234Z,1001.87
2022-12-13T01:59:52.379Z,1001.87
2022-12-13T02:00:32.229Z,1001.84
2022-12-13T02:01:12.709Z,1001.83
2022-12-13T02:01:53.153Z,1001.79
2022-12-13T02:03:20.726Z,1001.82
2022-12-13T02:03:54.620Z,1001.81
2022-12-13T02:04:35.133Z,1001.82
2022-12-13T02:05:15.929Z,1001.82
2022-12-13T02:05:56.106Z,1001.8
2022-12-13T02:06:36.597Z,1001.82
2022-12-13T02:07:22.476Z,1001.82
2022-12-13T02:07:57.601Z,1001.83
2022-12-13T02:08:38.107Z,1001.82
2022-12-13T02:09:18.584Z,1001.83
2022-12-13T02:09:59.101Z,1001.83
2022-12-13T02:10:39.585Z,1001.83
2022-12-13T02:11:20.077Z,1001.81
2022-12-13T02:12:00.534Z,1001.81
2022-12-13T02:13:21.537Z,1001.79
2022-12-13T02:14:01.990Z,1001.84
2022-12-13T02:14:42.452Z,1001.8
2022-12-13T02:15:22.939Z,1001.81
2022-12-13T02:16:03.455Z,1001.84
2022-12-13T02:16:43.905Z,1001.85
2022-12-13T02:17:24.378Z,1001.84
2022-12-13T02:18:04.863Z,1001.83
2022-12-13T02:18:45.363Z,1001.8
2022-12-13T02:19:25.801Z,1001.83
2022-12-13T02:20:06.299Z,1001.78
2022-12-13T02:20:46.819Z,1001.82
2022-12-13T02:21:27.280Z,1001.85
2022-12-13T02:22:07.776Z,1001.83
2022-12-13T02:22:48.223Z,1001.81
2022-12-13T02:23:28.733Z,1001.84
2022-12-13T02:24:09.450Z,1001.85
2022-12-13T02:24:49.627Z,1001.84
2022-12-13T02:25:30.084Z,1001.83
2022-12-13T02:26:10.587Z,1001.81
2022-12-13T02:26:51.154Z,1001.8
2022-12-13T02:27:31.682Z,1001.82
2022-12-13T02:28:30.283Z,1001.82
2022-12-13T02:28:52.543Z,1001.85
2022-12-13T02:29:32.994Z,1001.87
2022-12-13T02:30:13.491Z,1001.84
2022-12-13T02:30:53.989Z,1001.87
2022-12-13T02:31:34.444Z,1001.87
2022-12-13T02:32:14.877Z,1001.92
2022-12-13T02:32:55.404Z,1001.82
2022-12-13T02:33:35.920Z,1001.84
2022-12-13T02:34:16.540Z,1001.85
2022-12-13T02:34:56.933Z,1001.87
2022-12-13T02:35:37.413Z,1001.84
2022-12-13T02:36:17.875Z,1001.86
2022-12-13T02:36:58.306Z,1001.86
2022-12-13T02:37:38.773Z,1001.84
2022-12-13T02:38:24.393Z,1001.86
2022-12-13T02:39:40.277Z,1001.8
2022-12-13T02:40:20.733Z,1001.83
2022-12-13T02:41:01.211Z,1001.85
2022-12-13T02:41:41.684Z,1001.82
2022-12-13T02:42:22.367Z,1001.83
2022-12-13T02:43:02.647Z,1001.78
2022-12-13T02:43:45.381Z,1001.78
2022-12-13T02:44:23.591Z,1001.78
2022-12-13T02:45:04.076Z,1001.78
2022-12-13T02:45:44.551Z,1001.77
2022-12-13T02:46:25.086Z,1001.77
2022-12-13T02:47:05.533Z,1001.75
2022-12-13T02:47:46.005Z,1001.75
2022-12-13T02:48:26.499Z,1001.76
2022-12-13T02:49:47.564Z,1001.74
2022-12-13T02:50:27.975Z,1001.77
2022-12-13T02:51:08.434Z,1001.79
2022-12-13T02:51:48.903Z,1001.71
2022-12-13T02:52:29.383Z,1001.75
2022-12-13T02:53:09.901Z,1001.71
2022-12-13T02:53:50.319Z,1001.75
2022-12-13T02:54:30.777Z,1001.69
2022-12-13T02:55:11.281Z,1001.73
2022-12-13T02:55:51.728Z,1001.72
2022-12-13T02:56:32.237Z,1001.72
2022-12-13T02:57:12.692Z,1001.74
2022-12-13T02:57:53.310Z,1001.69
2022-12-13T02:58:33.757Z,1001.72
2022-12-13T02:59:14.249Z,1001.72
2022-12-13T02:59:54.718Z,1001.71
2022-12-13T03:00:35.220Z,1001.73
2022-12-13T03:01:28.310Z,1001.7
2022-12-13T03:02:00.780Z,1001.72
2022-12-13T03:02:36.818Z,1001.75
2022-12-13T03:03:17.199Z,1001.72
2022-12-13T03:03:57.631Z,1001.71
2022-12-13T03:04:38.148Z,1001.68
2022-12-13T03:05:18.657Z,1001.71
2022-12-13T03:05:59.110Z,1001.69
2022-12-13T03:06:39.582Z,1001.71
2022-12-13T03:07:20.115Z,1001.71
2022-12-13T03:08:00.654Z,1001.69
2022-12-13T03:08:41.066Z,1001.66
2022-12-13T03:09:21.538Z,1001.68
2022-12-13T03:10:02.005Z,1001.69
2022-12-13T03:10:42.534Z,1001.7
2022-12-13T03:11:22.987Z,1001.7
2022-12-13T03:12:03.494Z,1001.7
2022-12-13T03:12:43.934Z,1001.7
2022-12-13T03:13:24.466Z,1001.71
2022-12-13T03:14:04.924Z,1001.7
2022-12-13T03:14:45.444Z,1001.73
2022-12-13T03:15:25.901Z,1001.76
2022-12-13T03:16:06.495Z,1001.73
2022-12-13T03:16:46.879Z,1001.77
2022-12-13T03:17:27.337Z,1001.74
2022-12-13T03:18:07.826Z,1001.78
2022-12-13T03:18:48.313Z,1001.75
2022-12-13T03:19:28.799Z,1001.73
2022-12-13T03:20:49.786Z,1001.73
2022-12-13T03:21:30.257Z,1001.71
2022-12-13T03:22:10.712Z,1001.72
2022-12-13T03:22:51.248Z,1001.66
2022-12-13T03:23:31.723Z,1001.7
2022-12-13T03:24:12.179Z,1001.71
2022-12-13T03:24:52.660Z,1001.68
2022-12-13T03:25:33.238Z,1001.67
2022-12-13T03:26:13.631Z,1001.67
2022-12-13T03:26:54.126Z,1001.66
2022-12-13T03:28:15.027Z,1001.69
2022-12-13T03:28:55.536Z,1001.71
2022-12-13T03:29:35.984Z,1001.7
2022-12-13T03:32:04.634Z,1001.75
2022-12-13T03:32:45.253Z,1001.8
2022-12-13T03:33:25.614Z,1001.81
2022-12-13T03:34:06.128Z,1001.78
2022-12-13T03:34:48.592Z,1001.81
2022-12-13T03:35:34.065Z,1001.8
2022-12-13T03:36:07.603Z,1001.79
2022-12-13T03:36:48.076Z,1001.77
2022-12-13T03:37:28.545Z,1001.81
2022-12-13T03:38:09.038Z,1001.78
2022-12-13T03:38:49.556Z,1001.76
2022-12-13T03:39:30.101Z,1001.79
2022-12-13T03:40:10.585Z,1001.77
2022-12-13T03:40:51.962Z,1001.78
2022-12-13T03:41:31.619Z,1001.78
2022-12-13T03:42:12.154Z,1001.81
2022-12-13T03:42:52.609Z,1001.78
2022-12-13T03:43:33.103Z,1001.77
2022-12-13T03:44:13.592Z,1001.8
2022-12-13T03:44:54.094Z,1001.79
2022-12-13T03:45:34.595Z,1001.76
2022-12-13T03:46:15.213Z,1001.74
2022-12-13T03:46:55.690Z,1001.79
2022-12-13T03:48:21.642Z,1001.78
2022-12-13T03:48:57.307Z,1001.76
2022-12-13T03:49:37.799Z,1001.77
2022-12-13T03:50:25.395Z,1001.79
2022-12-13T03:50:58.771Z,1001.8
2022-12-13T03:51:39.268Z,1001.76
2022-12-13T03:52:19.804Z,1001.78
2022-12-13T03:53:00.259Z,1001.79
2022-12-13T03:53:40.752Z,1001.75
2022-12-13T03:54:21.311Z,1001.75
2022-12-13T03:55:01.829Z,1001.79
2022-12-13T03:55:42.328Z,1001.77
2022-12-13T03:56:22.813Z,1001.78
2022-12-13T03:57:03.276Z,1001.77
2022-12-13T03:57:43.752Z,1001.77
2022-12-13T03:58:24.215Z,1001.74
2022-12-13T03:59:04.741Z,1001.75
2022-12-13T03:59:45.265Z,1001.75
2022-12-13T04:00:25.730Z,1001.73
2022-12-13T04:01:06.301Z,1001.74
2022-12-13T04:01:46.742Z,1001.72
2022-12-13T04:02:30.604Z,1001.73
2022-12-13T04:03:07.771Z,1001.71
2022-12-13T04:03:48.256Z,1001.73
2022-12-13T04:04:28.731Z,1001.74
2022-12-13T04:05:09.313Z,1001.75
2022-12-13T04:05:49.877Z,1001.72
2022-12-13T04:06:32.920Z,1001.76
2022-12-13T04:07:22.156Z,1001.74
2022-12-13T04:07:51.450Z,1001.73
2022-12-13T04:08:32.084Z,1001.7
2022-12-13T04:09:12.508Z,1001.72
2022-12-13T04:09:52.992Z,1001.78
2022-12-13T04:10:33.493Z,1001.75
2022-12-13T04:11:13.981Z,1001.71
2022-12-13T04:11:54.457Z,1001.71
2022-12-13T04:12:34.976Z,1001.73
2022-12-13T04:13:55.963Z,1001.73
2022-12-13T04:14:36.475Z,1001.7
2022-12-13T04:15:17.303Z,1001.66
2022-12-13T04:15:57.522Z,1001.7
2022-12-13T04:16:38.033Z,1001.68
2022-12-13T04:17:18.512Z,1001.68
2022-12-13T04:17:58.924Z,1001.64
2022-12-13T04:18:39.930Z,1001.71
2022-12-13T04:19:22.658Z,1001.68
2022-12-13T04:20:00.888Z,1001.67
2022-12-13T04:20:41.418Z,1001.67
2022-12-13T04:21:21.905Z,1001.69
2022-12-13T04:22:02.397Z,1001.71
2022-12-13T04:22:42.951Z,1001.71
2022-12-13T04:23:23.466Z,1001.67
2022-12-13T04:24:03.954Z,1001.73
2022-12-13T04:24:44.459Z,1001.72
2022-12-13T04:25:24.910Z,1001.71
2022-12-13T04:26:05.412Z,1001.73
2022-12-13T04:26:45.890Z,1001.7
2022-12-13T04:27:26.358Z,1001.72
2022-12-13T04:28:06.877Z,1001.69
2022-12-13T04:28:52.649Z,1001.7
2022-12-13T04:29:27.889Z,1001.66
2022-12-13T04:30:08.388Z,1001.73
2022-12-13T04:30:48.878Z,1001.67
2022-12-13T04:31:29.383Z,1001.71
2022-12-13T04:32:26.209Z,1001.63
2022-12-13T04:32:50.392Z,1001.7
2022-12-13T04:33:30.934Z,1001.62
2022-12-13T04:36:32.411Z,1001.61
2022-12-13T04:37:10.205Z,1001.53
2022-12-13T04:37:50.640Z,1001.66
2022-12-13T04:38:31.122Z,1001.71
2022-12-13T04:39:21.753Z,1001.68
2022-12-13T04:39:52.106Z,1001.63
2022-12-13T04:40:32.628Z,1001.61
2022-12-13T04:41:13.131Z,1001.59
2022-12-13T04:41:53.600Z,1001.64
2022-12-13T04:42:34.056Z,1001.57
2022-12-13T04:43:14.587Z,1001.6
2022-12-13T04:43:55.094Z,1001.57
2022-12-13T04:44:37.153Z,1001.6
2022-12-13T04:45:16.302Z,1001.55
2022-12-13T04:46:37.012Z,1001.55
2022-12-13T04:47:17.479Z,1001.52
2022-12-13T04:47:57.938Z,1001.6
2022-12-13T04:48:38.451Z,1001.58
2022-12-13T04:49:18.919Z,1001.55
2022-12-13T04:49:59.424Z,1001.54
2022-12-13T04:50:39.928Z,1001.58
2022-12-13T04:51:20.456Z,1001.55
2022-12-13T04:52:01.878Z,1001.55
2022-12-13T04:52:41.396Z,1001.52
2022-12-13T04:53:21.907Z,1001.53
2022-12-13T04:54:12.969Z,1001.55
2022-12-13T04:54:42.942Z,1001.52
2022-12-13T04:55:23.437Z,1001.51
2022-12-13T04:56:03.989Z,1001.46
2022-12-13T04:56:44.468Z,1001.44
2022-12-13T04:57:24.993Z,1001.49
2022-12-13T04:58:05.470Z,1001.47
2022-12-13T04:58:45.948Z,1001.44
2022-12-13T04:59:26.446Z,1001.4
2022-12-13T05:00:06.910Z,1001.41
2022-12-13T05:00:47.474Z,1001.36
2022-12-13T05:01:27.897Z,1001.38
2022-12-13T05:02:08.486Z,1001.36
2022-12-13T05:02:48.868Z,1001.43
2022-12-13T05:03:29.353Z,1001.4
2022-12-13T05:04:09.806Z,1001.41
2022-12-13T05:04:53.647Z,1001.41
2022-12-13T05:05:30.776Z,1001.38
2022-12-13T05:06:26.442Z,1001.39
2022-12-13T05:06:51.779Z,1001.33
2022-12-13T05:07:32.255Z,1001.37
2022-12-13T05:08:12.823Z,1001.3
2022-12-13T05:08:53.336Z,1001.31
2022-12-13T05:09:33.824Z,1001.27
2022-12-13T05:10:33.640Z,1001.3
2022-12-13T05:10:54.880Z,1001.3
2022-12-13T05:11:36.178Z,1001.28
2022-12-13T05:12:22.202Z,1001.27
2022-12-13T05:12:56.347Z,1001.28
2022-12-13T05:13:36.834Z,1001.25
2022-12-13T05:14:23.350Z,1001.3
2022-12-13T05:14:57.839Z,1001.3
2022-12-13T05:15:38.333Z,1001.3
2022-12-13T05:16:59.519Z,1001.29
2022-12-13T05:17:39.918Z,1001.3
2022-12-13T05:18:20.447Z,1001.33
2022-12-13T05:19:01.001Z,1001.33
2022-12-13T05:19:41.438Z,1001.3
2022-12-13T05:20:21.965Z,1001.32
2022-12-13T05:21:03.267Z,1001.26
2022-12-13T05:21:43.752Z,1001.3
2022-12-13T05:22:24.248Z,1001.28
2022-12-13T05:23:04.769Z,1001.28
2022-12-13T05:23:45.237Z,1001.29
2022-12-13T05:24:25.796Z,1001.32
2022-12-13T05:25:06.239Z,1001.34
2022-12-13T05:25:46.733Z,1001.32
2022-12-13T05:26:27.218Z,1001.32
2022-12-13T05:27:24.197Z,1001.28
2022-12-13T05:29:26.186Z,1001.36
2022-12-13T05:30:06.557Z,1001.32
2022-12-13T05:30:47.108Z,1001.35
2022-12-13T05:31:27.752Z,1001.3
2022-12-13T05:32:08.300Z,1001.25
2022-12-13T05:32:48.667Z,1001.27
2022-12-13T05:33:29.400Z,1001.25
2022-12-13T05:34:09.768Z,1001.27
2022-12-13T05:34:50.290Z,1001.25
2022-12-13T05:35:30.881Z,1001.23
2022-12-13T05:36:11.504Z,1001.25
2022-12-13T05:36:51.914Z,1001.24
2022-12-13T05:37:34.687Z,1001.22
2022-12-13T05:38:12.955Z,1001.24
2022-12-13T05:38:53.456Z,1001.24
2022-12-13T05:39:34.006Z,1001.31
2022-12-13T05:40:14.506Z,1001.19
2022-12-13T05:40:54.994Z,1001.22
2022-12-13T05:42:15.971Z,1001.21
2022-12-13T05:43:01.135Z,1001.18
2022-12-13T05:43:42.560Z,1001.2
2022-12-13T05:44:17.462Z,1001.17
2022-12-13T05:44:58.019Z,1001.19
2022-12-13T05:45:38.555Z,1001.2
2022-12-13T05:46:19.051Z,1001.15
2022-12-13T05:46:59.537Z,1001.21
2022-12-13T05:47:39.996Z,1001.21
2022-12-13T05:48:24.221Z,1001.22
2022-12-13T05:49:01.043Z,1001.22
2022-12-13T05:49:41.509Z,1001.2
2022-12-13T05:50:22.047Z,1001.22
2022-12-13T05:52:19.972Z,1001.22
2022-12-13T05:53:00.331Z,1001.17
2022-12-13T06:32:28.793Z,1001.09
2022-12-13T06:33:09.174Z,1001.09
2022-12-13T06:33:49.706Z,1001.07
2022-12-13T06:34:30.206Z,1001.07
2022-12-13T06:35:27.042Z,1001.11
2022-12-13T06:35:51.120Z,1001.11
2022-12-13T06:36:31.583Z,1001.09
2022-12-13T06:37:12.072Z,1001.09
2022-12-13T06:37:52.600Z,1001.12
2022-12-13T06:38:33.070Z,1001.14
2022-12-13T06:39:13.576Z,1001.16
2022-12-13T06:39:54.073Z,1001.17
2022-12-13T06:40:34.585Z,1001.13
2022-12-13T06:41:55.599Z,1001.16
2022-12-13T06:42:36.120Z,1001.17
2022-12-13T06:43:16.607Z,1001.13
2022-12-13T06:43:57.098Z,1001.17
2022-12-13T06:44:37.585Z,1001.13
2022-12-13T06:45:18.081Z,1001.1
2022-12-13T06:45:58.509Z,1001.15
2022-12-13T06:46:40.722Z,1001.12
2022-12-13T06:47:31.575Z,1001.13
2022-12-13T06:48:00.040Z,1001.11
2022-12-13T06:48:40.608Z,1001.14
2022-12-13T06:49:21.143Z,1001.14
2022-12-13T06:50:05.186Z,1001.16
2022-12-13T06:50:42.125Z,1001.17
2022-12-13T06:52:03.154Z,1001.16
2022-12-13T06:52:43.644Z,1001.16
2022-12-13T06:53:24.103Z,1001.14
2022-12-13T06:54:04.566Z,1001.16
2022-12-13T06:54:45.050Z,1001.17
2022-12-13T06:55:25.557Z,1001.15
2022-12-13T06:56:06.047Z,1001.12
2022-12-13T06:56:46.551Z,1001.15
2022-12-13T06:57:27.041Z,1001.17
2022-12-13T06:58:07.581Z,1001.19
2022-12-13T06:58:48.070Z,1001.18
2022-12-13T06:59:28.588Z,1001.11
2022-12-13T07:00:09.082Z,1001.11
2022-12-13T07:00:49.721Z,1001.09
2022-12-13T07:01:36.669Z,1001.07
2022-12-13T07:02:15.229Z,1001.1
2022-12-13T07:02:51.108Z,1001.06
2022-12-13T07:03:31.702Z,1001.11
2022-12-13T07:04:29.039Z,1001.09
2022-12-13T07:04:52.669Z,1001.1
2022-12-13T07:05:33.104Z,1001.11
2022-12-13T07:06:13.566Z,1001.1
2022-12-13T07:06:54.273Z,1001.06
2022-12-13T07:07:34.776Z,1001.11
2022-12-13T07:08:22.173Z,1001.11
2022-12-13T07:08:55.764Z,1001.11
2022-12-13T07:09:36.383Z,1001.14
2022-12-13T07:10:21.699Z,1001.14
2022-12-13T07:10:57.397Z,1001.14
2022-12-13T07:11:37.857Z,1001.15
2022-12-13T07:12:18.328Z,1001.17
2022-12-13T07:12:58.863Z,1001.15
2022-12-13T07:13:39.403Z,1001.19
2022-12-13T07:15:00.477Z,1001.19
2022-12-13T07:15:41.079Z,1001.21
2022-12-13T07:16:21.608Z,1001.2
2022-12-13T07:17:03.707Z,1001.2
2022-12-13T07:17:42.770Z,1001.16
2022-12-13T07:18:23.242Z,1001.19
2022-12-13T07:19:03.817Z,1001.16
2022-12-13T07:19:44.639Z,1001.17
2022-12-13T07:20:24.838Z,1001.13
2022-12-13T07:21:05.363Z,1001.17
2022-12-13T07:21:45.914Z,1001.19
2022-12-13T07:22:26.427Z,1001.19
2022-12-13T07:23:06.931Z,1001.2
2022-12-13T07:23:47.443Z,1001.2
2022-12-13T07:24:27.979Z,1001.18
2022-12-13T07:25:08.758Z,1001.2
2022-12-13T07:25:49.312Z,1001.23
2022-12-13T07:26:29.790Z,1001.16
2022-12-13T07:27:50.775Z,1001.16
2022-12-13T07:28:31.289Z,1001.17
2022-12-13T07:29:11.912Z,1001.13
2022-12-13T07:29:52.748Z,1001.14
2022-12-13T07:30:33.405Z,1001.18
2022-12-13T07:31:13.938Z,1001.19
2022-12-13T07:31:54.459Z,1001.15
2022-12-13T07:32:34.956Z,1001.11
2022-12-13T07:33:21.973Z,1001.1
2022-12-13T07:33:56.142Z,1001.13
2022-12-13T07:34:36.658Z,1001.07
2022-12-13T07:35:17.199Z,1001.09
2022-12-13T07:35:57.706Z,1001.1
2022-12-13T07:36:38.230Z,1001.1
2022-12-13T07:37:29.202Z,1001.11
2022-12-13T07:37:59.316Z,1001.1
2022-12-13T07:38:40.019Z,1001.1
2022-12-13T07:39:21.102Z,1001.1
2022-12-13T07:40:04.183Z,1001.11
2022-12-13T07:40:42.353Z,1001.07
2022-12-13T07:41:23.083Z,1001.06
2022-12-13T07:42:03.346Z,1001.02
2022-12-13T07:42:43.915Z,1001.05
2022-12-13T07:43:24.448Z,1001.03
2022-12-13T07:44:04.974Z,1001.06
2022-12-13T07:44:45.569Z,1001.05
2022-12-13T07:45:26.120Z,1001.01
2022-12-13T07:46:06.672Z,1001.03
2022-12-13T07:46:47.208Z,1001.03
2022-12-13T07:47:27.753Z,1001.02
2022-12-13T07:48:08.322Z,1001.02
2022-12-13T07:48:48.844Z,1001.02
2022-12-13T07:49:29.320Z,1000.97
2022-12-13T07:50:23.886Z,1001.06
2022-12-13T07:50:54.312Z,1001.01
2022-12-13T07:51:31.109Z,1001.08
2022-12-13T07:52:11.629Z,1001.07
2022-12-13T07:52:52.155Z,1001.09
2022-12-13T07:53:33.323Z,1001.1
2022-12-13T07:54:13.693Z,1001.06
2022-12-13T07:54:54.203Z,1001.09
2022-12-13T07:55:34.745Z,1001.07
2022-12-13T07:56:15.373Z,1001.05
2022-12-13T07:56:59.778Z,1001.09
2022-12-13T07:57:36.334Z,1001.08
2022-12-13T07:58:16.840Z,1001.11
2022-12-13T07:58:57.394Z,1001.12
2022-12-13T07:59:37.953Z,1001.16
2022-12-13T08:00:18.605Z,1001.12
2022-12-13T08:00:59.185Z,1001.16
2022-12-13T08:01:40.030Z,1001.16
2022-12-13T08:02:20.429Z,1001.21
2022-12-13T08:03:00.964Z,1001.23
2022-12-13T08:03:41.526Z,1001.18
2022-12-13T08:04:22.047Z,1001.21
2022-12-13T08:05:06.217Z,1001.23
2022-12-13T08:05:43.213Z,1001.22
2022-12-13T08:06:23.688Z,1001.24
2022-12-13T08:07:04.213Z,1001.28
2022-12-13T08:07:44.717Z,1001.26
2022-12-13T08:08:25.281Z,1001.26
2022-12-13T08:09:05.735Z,1001.28
2022-12-13T08:09:51.083Z,1001.25
2022-12-13T08:10:26.776Z,1001.31
2022-12-13T08:11:07.297Z,1001.28
2022-12-13T08:11:47.876Z,1001.29
2022-12-13T08:12:28.370Z,1001.28
2022-12-13T08:13:08.947Z,1001.33
2022-12-13T08:13:49.403Z,1001.28
2022-12-13T08:14:29.943Z,1001.3
2022-12-13T08:15:13.879Z,1001.3
2022-12-13T08:15:50.999Z,1001.3
2022-12-13T08:16:31.601Z,1001.28
2022-12-13T08:17:12.137Z,1001.31
2022-12-13T08:17:52.616Z,1001.33
2022-12-13T08:18:33.158Z,1001.34
2022-12-13T08:19:13.710Z,1001.38
2022-12-13T08:19:54.271Z,1001.43
2022-12-13T08:20:34.732Z,1001.4
2022-12-13T08:21:52.219Z,1001.38
2022-12-13T08:21:58.694Z,1001.45
2022-12-13T08:22:37.308Z,1001.43
2022-12-13T08:23:17.905Z,1001.36
2022-12-13T08:23:58.370Z,1001.37
2022-12-13T08:24:38.876Z,1001.36
2022-12-13T08:25:19.396Z,1001.36
2022-12-13T08:25:59.922Z,1001.39
2022-12-13T08:26:40.461Z,1001.41
2022-12-13T08:27:20.899Z,1001.42
2022-12-13T08:28:02.610Z,1001.44
2022-12-13T08:28:42.103Z,1001.46
2022-12-13T08:29:33.114Z,1001.46
2022-12-13T08:30:03.108Z,1001.47
2022-12-13T08:30:43.705Z,1001.42
2022-12-13T08:31:24.640Z,1001.42
2022-12-13T08:32:05.074Z,1001.42
2022-12-13T08:32:45.564Z,1001.42
2022-12-13T08:33:26.158Z,1001.4
2022-12-13T08:34:06.730Z,1001.39
2022-12-13T08:34:47.274Z,1001.35
2022-12-13T08:35:32.056Z,1001.34
2022-12-13T08:36:08.385Z,1001.38
2022-12-13T08:36:48.961Z,1001.34
2022-12-13T08:37:29.498Z,1001.34
2022-12-13T08:38:10.052Z,1001.36
2022-12-13T08:38:52.331Z,1001.4
2022-12-13T08:39:34.342Z,1001.33
2022-12-13T08:40:13.517Z,1001.37
2022-12-13T08:40:54.001Z,1001.39
2022-12-13T08:41:39.013Z,1001.38
2022-12-13T08:42:18.008Z,1001.44
2022-12-13T08:42:55.680Z,1001.44
2022-12-13T08:43:36.197Z,1001.39
2022-12-13T08:45:49.772Z,1001.45
2022-12-13T08:46:30.399Z,1001.48
2022-12-13T08:47:10.965Z,1001.49
2022-12-13T08:47:51.513Z,1001.5
2022-12-13T08:48:33.591Z,1001.55
2022-12-13T08:49:14.314Z,1001.51
2022-12-13T08:49:54.708Z,1001.54
2022-12-13T08:50:35.245Z,1001.54
2022-12-13T08:51:15.806Z,1001.55
2022-12-13T08:51:56.259Z,1001.51
2022-12-13T08:52:41.010Z,1001.53
2022-12-13T08:53:27.856Z,1001.47
2022-12-13T08:54:10.861Z,1001.49
2022-12-13T08:57:21.169Z,1001.45
2022-12-13T09:00:50.269Z,1001.53
2022-12-13T09:01:31.623Z,1001.51
2022-12-13T09:02:12.154Z,1001.53
2022-12-13T09:02:52.752Z,1001.55
2022-12-13T09:03:33.193Z,1001.52
2022-12-13T09:04:13.929Z,1001.49
2022-12-13T09:04:54.390Z,1001.53
2022-12-13T09:05:35.391Z,1001.49
2022-12-13T09:06:15.571Z,1001.49
2022-12-13T09:06:56.104Z,1001.46
2022-12-13T09:07:36.692Z,1001.49
2022-12-13T09:08:23.219Z,1001.49
2022-12-13T09:08:57.757Z,1001.49
2022-12-13T09:09:38.238Z,1001.49
2022-12-13T09:10:26.218Z,1001.47
2022-12-13T09:10:59.647Z,1001.51
2022-12-13T09:11:40.225Z,1001.52
2022-12-13T09:12:30.162Z,1001.5
2022-12-13T09:13:02.183Z,1001.48
2022-12-13T09:13:43.238Z,1001.49
2022-12-13T09:14:23.478Z,1001.52
2022-12-13T09:15:02.564Z,1001.5
2022-12-13T09:15:45.698Z,1001.53
2022-12-13T09:16:24.344Z,1001.46
2022-12-13T09:17:04.710Z,1001.49
2022-12-13T09:17:45.149Z,1001.5
2022-12-13T09:18:29.052Z,1001.54
2022-12-13T09:19:06.461Z,1001.5
2022-12-13T09:19:47.023Z,1001.52
2022-12-13T09:20:29.307Z,1001.51
2022-12-13T09:21:10.589Z,1001.59
2022-12-13T09:21:48.699Z,1001.57
2022-12-13T09:22:32.909Z,1001.56
2022-12-13T09:25:27.896Z,1001.62
2022-12-13T09:26:08.517Z,1001.61
2022-12-13T09:26:49.044Z,1001.58
2022-12-13T09:27:29.729Z,1001.67
2022-12-13T09:28:10.319Z,1001.66
2022-12-13T09:28:50.837Z,1001.68
2022-12-13T09:29:31.379Z,1001.62
2022-12-13T09:30:11.949Z,1001.63
2022-12-13T09:30:52.606Z,1001.67
2022-12-13T09:31:33.314Z,1001.64
2022-12-13T09:32:14.152Z,1001.67
2022-12-13T09:32:54.699Z,1001.7
2022-12-13T09:33:40.692Z,1001.72
2022-12-13T09:34:15.963Z,1001.72
2022-12-13T09:34:56.729Z,1001.77
2022-12-13T09:35:37.458Z,1001.73
2022-12-13T09:36:18.073Z,1001.7
2022-12-13T09:37:01.067Z,1001.7
2022-12-13T09:37:44.204Z,1001.72
2022-12-13T09:38:20.467Z,1001.66
2022-12-13T09:39:01.002Z,1001.62
2022-12-13T09:39:41.494Z,1001.59
2022-12-13T09:40:26.218Z,1001.61
2022-12-13T09:41:02.600Z,1001.58
2022-12-13T09:41:43.198Z,1001.55
2022-12-13T09:42:23.902Z,1001.55
2022-12-13T09:43:12.035Z,1001.61
2022-12-13T09:43:45.544Z,1001.55
2022-12-13T09:44:31.419Z,1001.56
2022-12-13T09:45:06.475Z,1001.49
2022-12-13T09:45:47.076Z,1001.55
2022-12-13T09:46:34.597Z,1001.54
2022-12-13T09:47:13.227Z,1001.58
2022-12-13T09:47:48.642Z,1001.54
2022-12-13T09:48:29.618Z,1001.55
2022-12-13T09:49:13.171Z,1001.54
2022-12-13T09:49:51.989Z,1001.52
2022-12-13T09:50:37.731Z,1001.59
2022-12-13T09:51:16.810Z,1001.6
2022-12-13T09:52:04.476Z,1001.65